sensor_id;sensor_type;location;lat;lon;timestamp;temperature;humidity
12289;DHT22;6207;49.308;7.336;2022-08-14T00:01:55;16.30;99.90
12289;DHT22;6207;49.308;7.336;2022-08-14T00:04:23;16.30;99.90
12289;DHT22;6207;49.308;7.336;2022-08-14T00:07:08;16.40;99.90
12289;DHT22;6207;49.308;7.336;2022-08-14T00:09:36;16.40;99.90
12289;DHT22;6207;49.308;7.336;2022-08-14T00:12:24;16.40;99.90
12289;DHT22;6207;49.308;7.336;2022-08-14T00:15:10;16.40;99.90
12289;DHT22;6207;49.308;7.336;2022-08-14T00:17:41;16.40;99.90
12289;DHT22;6207;49.308;7.336;2022-08-14T00:20:22;16.50;99.90
12289;DHT22;6207;49.308;7.336;2022-08-14T00:22:56;16.40;99.90
12289;DHT22;6207;49.308;7.336;2022-08-14T00:25:26;16.20;99.90
12289;DHT22;6207;49.308;7.336;2022-08-14T00:28:09;16.10;99.90
12289;DHT22;6207;49.308;7.336;2022-08-14T00:30:41;16.10;99.90
12289;DHT22;6207;49.308;7.336;2022-08-14T00:33:09;16.10;99.90
12289;DHT22;6207;49.308;7.336;2022-08-14T00:35:42;16.20;99.90
12289;DHT22;6207;49.308;7.336;2022-08-14T00:38:29;16.10;99.90
12289;DHT22;6207;49.308;7.336;2022-08-14T00:40:57;16.00;99.90
12289;DHT22;6207;49.308;7.336;2022-08-14T00:43:24;16.00;99.90
12289;DHT22;6207;49.308;7.336;2022-08-14T00:46:07;16.00;99.90
12289;DHT22;6207;49.308;7.336;2022-08-14T00:48:54;15.90;99.90
12289;DHT22;6207;49.308;7.336;2022-08-14T00:51:23;15.90;99.90
12289;DHT22;6207;49.308;7.336;2022-08-14T00:54:00;15.80;99.90
12289;DHT22;6207;49.308;7.336;2022-08-14T00:56:30;15.70;99.90
12289;DHT22;6207;49.308;7.336;2022-08-14T00:58:57;15.70;99.90
12289;DHT22;6207;49.308;7.336;2022-08-14T01:01:25;15.70;99.90
12289;DHT22;6207;49.308;7.336;2022-08-14T01:03:52;15.60;99.90
12289;DHT22;6207;49.308;7.336;2022-08-14T01:06:20;15.60;99.90
12289;DHT22;6207;49.308;7.336;2022-08-14T01:08:46;15.60;99.90
12289;DHT22;6207;49.308;7.336;2022-08-14T01:11:23;15.60;99.90
12289;DHT22;6207;49.308;7.336;2022-08-14T01:13:57;15.60;99.90
12289;DHT22;6207;49.308;7.336;2022-08-14T01:16:27;15.40;99.90
12289;DHT22;6207;49.308;7.336;2022-08-14T01:18:57;15.50;99.90
12289;DHT22;6207;49.308;7.336;2022-08-14T01:21:45;15.40;99.90
12289;DHT22;6207;49.308;7.336;2022-08-14T01:24:20;15.40;99.90
12289;DHT22;6207;49.308;7.336;2022-08-14T01:26:54;15.40;99.90
12289;DHT22;6207;49.308;7.336;2022-08-14T01:29:21;15.50;99.90
12289;DHT22;6207;49.308;7.336;2022-08-14T01:32:08;15.30;99.90
12289;DHT22;6207;49.308;7.336;2022-08-14T01:34:36;15.30;99.90
12289;DHT22;6207;49.308;7.336;2022-08-14T01:37:23;15.20;99.90
12289;DHT22;6207;49.308;7.336;2022-08-14T01:39:51;15.20;99.90
12289;DHT22;6207;49.308;7.336;2022-08-14T01:42:20;15.20;99.90
12289;DHT22;6207;49.308;7.336;2022-08-14T01:44:57;15.20;99.90
12289;DHT22;6207;49.308;7.336;2022-08-14T01:47:24;15.10;99.90
12289;DHT22;6207;49.308;7.336;2022-08-14T01:49:59;15.00;99.90
12289;DHT22;6207;49.308;7.336;2022-08-14T01:52:32;15.00;99.90
12289;DHT22;6207;49.308;7.336;2022-08-14T01:55:21;15.00;99.90
12289;DHT22;6207;49.308;7.336;2022-08-14T01:57:49;15.10;99.90
12289;DHT22;6207;49.308;7.336;2022-08-14T02:00:36;15.00;99.90
12289;DHT22;6207;49.308;7.336;2022-08-14T02:03:05;14.90;99.90
12289;DHT22;6207;49.308;7.336;2022-08-14T02:05:33;14.90;99.90
12289;DHT22;6207;49.308;7.336;2022-08-14T02:08:05;15.10;99.90
12289;DHT22;6207;49.308;7.336;2022-08-14T02:10:36;14.80;99.90
12289;DHT22;6207;49.308;7.336;2022-08-14T02:13:14;14.80;99.90
12289;DHT22;6207;49.308;7.336;2022-08-14T02:15:42;14.70;99.90
12289;DHT22;6207;49.308;7.336;2022-08-14T02:18:10;14.70;99.90
12289;DHT22;6207;49.308;7.336;2022-08-14T02:20:41;14.70;99.90
12289;DHT22;6207;49.308;7.336;2022-08-14T02:23:08;14.70;99.90
12289;DHT22;6207;49.308;7.336;2022-08-14T02:25:35;14.50;99.90
12289;DHT22;6207;49.308;7.336;2022-08-14T02:28:05;14.60;99.90
12289;DHT22;6207;49.308;7.336;2022-08-14T02:30:51;14.40;99.90
12289;DHT22;6207;49.308;7.336;2022-08-14T02:33:20;14.30;99.90
12289;DHT22;6207;49.308;7.336;2022-08-14T02:35:49;14.30;99.90
12289;DHT22;6207;49.308;7.336;2022-08-14T02:38:27;14.30;99.90
12289;DHT22;6207;49.308;7.336;2022-08-14T02:40:59;14.20;99.90
12289;DHT22;6207;49.308;7.336;2022-08-14T02:43:26;14.30;99.90
12289;DHT22;6207;49.308;7.336;2022-08-14T02:46:04;14.20;99.90
12289;DHT22;6207;49.308;7.336;2022-08-14T02:48:31;14.30;99.90
12289;DHT22;6207;49.308;7.336;2022-08-14T02:51:22;14.30;99.90
12289;DHT22;6207;49.308;7.336;2022-08-14T02:53:55;14.30;99.90
12289;DHT22;6207;49.308;7.336;2022-08-14T02:56:24;14.30;99.90
12289;DHT22;6207;49.308;7.336;2022-08-14T02:59:13;14.20;99.90
12289;DHT22;6207;49.308;7.336;2022-08-14T03:01:40;14.40;99.90
12289;DHT22;6207;49.308;7.336;2022-08-14T03:04:16;14.20;99.90
12289;DHT22;6207;49.308;7.336;2022-08-14T03:06:46;14.20;99.90
12289;DHT22;6207;49.308;7.336;2022-08-14T03:09:37;14.20;99.90
12289;DHT22;6207;49.308;7.336;2022-08-14T03:12:25;14.30;99.90
12289;DHT22;6207;49.308;7.336;2022-08-14T03:15:06;14.20;99.90
12289;DHT22;6207;49.308;7.336;2022-08-14T03:17:40;14.20;99.90
12289;DHT22;6207;49.308;7.336;2022-08-14T03:20:26;14.20;99.90
12289;DHT22;6207;49.308;7.336;2022-08-14T03:22:57;14.10;99.90
12289;DHT22;6207;49.308;7.336;2022-08-14T03:25:31;14.00;99.90
12289;DHT22;6207;49.308;7.336;2022-08-14T03:28:03;14.00;99.90
12289;DHT22;6207;49.308;7.336;2022-08-14T03:30:30;14.10;99.90
12289;DHT22;6207;49.308;7.336;2022-08-14T03:33:07;14.00;99.90
12289;DHT22;6207;49.308;7.336;2022-08-14T03:35:37;14.00;99.90
12289;DHT22;6207;49.308;7.336;2022-08-14T03:38:25;14.20;99.90
12289;DHT22;6207;49.308;7.336;2022-08-14T03:41:14;13.90;99.90
12289;DHT22;6207;49.308;7.336;2022-08-14T03:43:43;13.90;99.90
12289;DHT22;6207;49.308;7.336;2022-08-14T03:46:11;13.90;99.90
12289;DHT22;6207;49.308;7.336;2022-08-14T03:48:59;13.90;99.90
12289;DHT22;6207;49.308;7.336;2022-08-14T03:51:33;13.80;99.90
12289;DHT22;6207;49.308;7.336;2022-08-14T03:54:03;13.70;99.90
12289;DHT22;6207;49.308;7.336;2022-08-14T03:56:34;13.70;99.90
12289;DHT22;6207;49.308;7.336;2022-08-14T03:59:04;13.70;99.90
12289;DHT22;6207;49.308;7.336;2022-08-14T04:01:43;13.70;99.90
12289;DHT22;6207;49.308;7.336;2022-08-14T04:04:27;13.70;99.90
12289;DHT22;6207;49.308;7.336;2022-08-14T04:06:53;13.70;99.90
12289;DHT22;6207;49.308;7.336;2022-08-14T04:09:25;13.90;99.90
12289;DHT22;6207;49.308;7.336;2022-08-14T04:11:53;13.90;99.90
12289;DHT22;6207;49.308;7.336;2022-08-14T04:14:21;13.80;99.90
12289;DHT22;6207;49.308;7.336;2022-08-14T04:16:49;13.70;99.90
12289;DHT22;6207;49.308;7.336;2022-08-14T04:19:16;13.90;99.90
12289;DHT22;6207;49.308;7.336;2022-08-14T04:21:45;13.80;99.90
12289;DHT22;6207;49.308;7.336;2022-08-14T04:24:30;13.70;99.90
12289;DHT22;6207;49.308;7.336;2022-08-14T04:27:11;13.80;99.90
12289;DHT22;6207;49.308;7.336;2022-08-14T04:29:42;13.80;99.90
12289;DHT22;6207;49.308;7.336;2022-08-14T04:32:11;13.70;99.90
12289;DHT22;6207;49.308;7.336;2022-08-14T04:35:02;13.70;99.90
12289;DHT22;6207;49.308;7.336;2022-08-14T04:37:33;13.70;99.90
12289;DHT22;6207;49.308;7.336;2022-08-14T04:40:19;13.80;99.90
12289;DHT22;6207;49.308;7.336;2022-08-14T04:43:06;13.90;99.90
12289;DHT22;6207;49.308;7.336;2022-08-14T04:46:09;13.90;99.90
12289;DHT22;6207;49.308;7.336;2022-08-14T04:48:57;13.90;99.90
12289;DHT22;6207;49.308;7.336;2022-08-14T04:51:25;13.90;99.90
12289;DHT22;6207;49.308;7.336;2022-08-14T04:53:55;14.00;99.90
12289;DHT22;6207;49.308;7.336;2022-08-14T04:56:23;14.10;99.90
12289;DHT22;6207;49.308;7.336;2022-08-14T04:59:02;14.00;99.90
12289;DHT22;6207;49.308;7.336;2022-08-14T05:01:38;14.00;99.90
12289;DHT22;6207;49.308;7.336;2022-08-14T05:04:06;13.90;99.90
12289;DHT22;6207;49.308;7.336;2022-08-14T05:06:41;14.10;99.90
12289;DHT22;6207;49.308;7.336;2022-08-14T05:09:08;14.00;99.90
12289;DHT22;6207;49.308;7.336;2022-08-14T05:11:40;14.10;99.90
12289;DHT22;6207;49.308;7.336;2022-08-14T05:14:07;14.20;99.90
12289;DHT22;6207;49.308;7.336;2022-08-14T05:16:54;14.10;99.90
12289;DHT22;6207;49.308;7.336;2022-08-14T05:19:27;14.30;99.90
12289;DHT22;6207;49.308;7.336;2022-08-14T05:21:55;14.40;99.90
12289;DHT22;6207;49.308;7.336;2022-08-14T05:24:43;14.40;99.90
12289;DHT22;6207;49.308;7.336;2022-08-14T05:27:14;14.60;99.90
12289;DHT22;6207;49.308;7.336;2022-08-14T05:29:40;14.60;99.90
12289;DHT22;6207;49.308;7.336;2022-08-14T05:32:10;14.80;99.90
12289;DHT22;6207;49.308;7.336;2022-08-14T05:34:40;14.90;99.90
12289;DHT22;6207;49.308;7.336;2022-08-14T05:37:11;14.90;99.90
12289;DHT22;6207;49.308;7.336;2022-08-14T05:39:41;15.00;99.90
12289;DHT22;6207;49.308;7.336;2022-08-14T05:42:08;15.10;99.90
12289;DHT22;6207;49.308;7.336;2022-08-14T05:44:48;15.30;99.90
12289;DHT22;6207;49.308;7.336;2022-08-14T05:47:19;15.40;99.90
12289;DHT22;6207;49.308;7.336;2022-08-14T05:49:46;15.40;99.90
12289;DHT22;6207;49.308;7.336;2022-08-14T05:52:14;15.70;99.90
12289;DHT22;6207;49.308;7.336;2022-08-14T05:54:43;16.40;99.90
12289;DHT22;6207;49.308;7.336;2022-08-14T05:57:10;17.20;99.90
12289;DHT22;6207;49.308;7.336;2022-08-14T05:59:38;18.10;99.90
12289;DHT22;6207;49.308;7.336;2022-08-14T06:02:09;18.90;99.90
12289;DHT22;6207;49.308;7.336;2022-08-14T06:04:37;20.20;99.90
12289;DHT22;6207;49.308;7.336;2022-08-14T06:07:05;21.60;99.90
12289;DHT22;6207;49.308;7.336;2022-08-14T06:09:32;22.30;99.90
12289;DHT22;6207;49.308;7.336;2022-08-14T06:12:07;23.10;99.90
12289;DHT22;6207;49.308;7.336;2022-08-14T06:14:35;24.00;99.90
12289;DHT22;6207;49.308;7.336;2022-08-14T06:17:02;24.30;99.90
12289;DHT22;6207;49.308;7.336;2022-08-14T06:19:30;24.70;99.90
12289;DHT22;6207;49.308;7.336;2022-08-14T06:21:56;23.40;99.90
12289;DHT22;6207;49.308;7.336;2022-08-14T06:24:25;24.20;99.90
12289;DHT22;6207;49.308;7.336;2022-08-14T06:26:52;24.50;99.90
12289;DHT22;6207;49.308;7.336;2022-08-14T06:29:30;25.60;99.90
12289;DHT22;6207;49.308;7.336;2022-08-14T06:32:01;26.40;99.90
12289;DHT22;6207;49.308;7.336;2022-08-14T06:34:48;27.20;99.90
12289;DHT22;6207;49.308;7.336;2022-08-14T06:37:43;27.90;99.90
12289;DHT22;6207;49.308;7.336;2022-08-14T06:40:14;27.40;99.90
12289;DHT22;6207;49.308;7.336;2022-08-14T06:42:55;24.90;99.90
12289;DHT22;6207;49.308;7.336;2022-08-14T06:45:26;26.40;99.90
12289;DHT22;6207;49.308;7.336;2022-08-14T06:47:53;25.80;99.90
12289;DHT22;6207;49.308;7.336;2022-08-14T06:50:26;26.90;99.90
12289;DHT22;6207;49.308;7.336;2022-08-14T06:52:57;26.20;99.90
12289;DHT22;6207;49.308;7.336;2022-08-14T06:55:24;24.60;99.90
12289;DHT22;6207;49.308;7.336;2022-08-14T06:57:54;21.90;99.90
12289;DHT22;6207;49.308;7.336;2022-08-14T07:00:24;20.80;99.90
12289;DHT22;6207;49.308;7.336;2022-08-14T07:02:56;20.70;99.90
12289;DHT22;6207;49.308;7.336;2022-08-14T07:05:41;21.30;99.90
12289;DHT22;6207;49.308;7.336;2022-08-14T07:08:24;22.00;99.90
12289;DHT22;6207;49.308;7.336;2022-08-14T07:10:59;23.10;99.90
12289;DHT22;6207;49.308;7.336;2022-08-14T07:13:28;23.90;99.90
12289;DHT22;6207;49.308;7.336;2022-08-14T07:15:57;23.40;99.90
12289;DHT22;6207;49.308;7.336;2022-08-14T07:18:28;24.00;99.90
12289;DHT22;6207;49.308;7.336;2022-08-14T07:20:57;24.10;99.90
12289;DHT22;6207;49.308;7.336;2022-08-14T07:23:24;23.70;99.90
12289;DHT22;6207;49.308;7.336;2022-08-14T07:25:53;24.40;99.90
12289;DHT22;6207;49.308;7.336;2022-08-14T07:28:29;25.00;99.90
12289;DHT22;6207;49.308;7.336;2022-08-14T07:31:04;25.80;99.90
12289;DHT22;6207;49.308;7.336;2022-08-14T07:33:46;25.20;99.90
12289;DHT22;6207;49.308;7.336;2022-08-14T07:36:18;24.40;99.90
12289;DHT22;6207;49.308;7.336;2022-08-14T07:38:57;23.70;99.90
12289;DHT22;6207;49.308;7.336;2022-08-14T07:41:24;23.30;99.90
12289;DHT22;6207;49.308;7.336;2022-08-14T07:43:59;24.10;99.90
12289;DHT22;6207;49.308;7.336;2022-08-14T07:46:45;24.50;99.90
12289;DHT22;6207;49.308;7.336;2022-08-14T07:49:12;24.50;99.90
12289;DHT22;6207;49.308;7.336;2022-08-14T07:51:43;23.90;99.90
12289;DHT22;6207;49.308;7.336;2022-08-14T07:54:11;23.90;99.90
12289;DHT22;6207;49.308;7.336;2022-08-14T07:56:42;23.90;99.90
12289;DHT22;6207;49.308;7.336;2022-08-14T07:59:14;24.30;99.90
12289;DHT22;6207;49.308;7.336;2022-08-14T08:01:44;24.50;99.90
12289;DHT22;6207;49.308;7.336;2022-08-14T08:04:21;24.30;99.90
12289;DHT22;6207;49.308;7.336;2022-08-14T08:06:51;24.00;99.90
12289;DHT22;6207;49.308;7.336;2022-08-14T08:09:22;23.70;99.90
12289;DHT22;6207;49.308;7.336;2022-08-14T08:11:50;24.20;99.90
12289;DHT22;6207;49.308;7.336;2022-08-14T08:14:23;24.40;99.90
12289;DHT22;6207;49.308;7.336;2022-08-14T08:16:53;24.70;99.90
12289;DHT22;6207;49.308;7.336;2022-08-14T08:19:20;24.00;99.90
12289;DHT22;6207;49.308;7.336;2022-08-14T08:21:46;24.40;99.90
12289;DHT22;6207;49.308;7.336;2022-08-14T08:24:14;24.20;99.90
12289;DHT22;6207;49.308;7.336;2022-08-14T08:26:45;24.30;99.90
12289;DHT22;6207;49.308;7.336;2022-08-14T08:29:18;24.60;99.90
12289;DHT22;6207;49.308;7.336;2022-08-14T08:31:54;25.00;99.90
12289;DHT22;6207;49.308;7.336;2022-08-14T08:34:21;25.30;99.90
12289;DHT22;6207;49.308;7.336;2022-08-14T08:36:49;25.30;99.90
12289;DHT22;6207;49.308;7.336;2022-08-14T08:39:16;25.30;99.90
12289;DHT22;6207;49.308;7.336;2022-08-14T08:41:48;25.50;99.90
12289;DHT22;6207;49.308;7.336;2022-08-14T08:44:19;26.00;99.90
12289;DHT22;6207;49.308;7.336;2022-08-14T08:47:02;26.00;99.90
12289;DHT22;6207;49.308;7.336;2022-08-14T08:49:38;26.00;99.90
12289;DHT22;6207;49.308;7.336;2022-08-14T08:52:28;26.40;99.90
12289;DHT22;6207;49.308;7.336;2022-08-14T08:54:58;26.70;99.90
12289;DHT22;6207;49.308;7.336;2022-08-14T08:57:32;26.40;99.90
12289;DHT22;6207;49.308;7.336;2022-08-14T09:00:00;26.50;99.90
12289;DHT22;6207;49.308;7.336;2022-08-14T09:02:27;26.70;99.90
12289;DHT22;6207;49.308;7.336;2022-08-14T09:05:01;27.60;99.90
12289;DHT22;6207;49.308;7.336;2022-08-14T09:07:28;27.90;99.90
12289;DHT22;6207;49.308;7.336;2022-08-14T09:09:56;28.00;99.90
12289;DHT22;6207;49.308;7.336;2022-08-14T09:12:30;28.30;99.90
12289;DHT22;6207;49.308;7.336;2022-08-14T09:15:08;27.90;99.90
12289;DHT22;6207;49.308;7.336;2022-08-14T09:17:39;27.90;99.90
12289;DHT22;6207;49.308;7.336;2022-08-14T09:20:07;28.30;99.90
12289;DHT22;6207;49.308;7.336;2022-08-14T09:22:39;28.20;99.90
12289;DHT22;6207;49.308;7.336;2022-08-14T09:25:14;28.40;99.90
12289;DHT22;6207;49.308;7.336;2022-08-14T09:27:42;27.90;99.90
12289;DHT22;6207;49.308;7.336;2022-08-14T09:30:09;28.00;99.90
12289;DHT22;6207;49.308;7.336;2022-08-14T09:44:31;28.30;98.50
12289;DHT22;6207;49.308;7.336;2022-08-14T09:46:59;28.60;98.80
12289;DHT22;6207;49.308;7.336;2022-08-14T09:49:34;28.90;99.90
12289;DHT22;6207;49.308;7.336;2022-08-14T09:52:08;28.30;99.90
12289;DHT22;6207;49.308;7.336;2022-08-14T09:54:56;28.60;99.90
12289;DHT22;6207;49.308;7.336;2022-08-14T09:57:26;28.70;99.90
12289;DHT22;6207;49.308;7.336;2022-08-14T09:59:54;29.30;99.90
12289;DHT22;6207;49.308;7.336;2022-08-14T10:02:26;29.00;99.90
12289;DHT22;6207;49.308;7.336;2022-08-14T10:05:09;29.50;99.90
12289;DHT22;6207;49.308;7.336;2022-08-14T10:07:49;29.00;99.90
12289;DHT22;6207;49.308;7.336;2022-08-14T10:10:31;29.20;99.90
12289;DHT22;6207;49.308;7.336;2022-08-14T10:13:06;28.80;99.90
12289;DHT22;6207;49.308;7.336;2022-08-14T10:15:37;29.20;99.90
12289;DHT22;6207;49.308;7.336;2022-08-14T10:18:11;29.10;99.90
12289;DHT22;6207;49.308;7.336;2022-08-14T10:20:59;29.70;99.90
12289;DHT22;6207;49.308;7.336;2022-08-14T10:23:37;29.50;99.90
12289;DHT22;6207;49.308;7.336;2022-08-14T10:26:06;29.10;99.90
12289;DHT22;6207;49.308;7.336;2022-08-14T10:28:44;28.80;99.90
12289;DHT22;6207;49.308;7.336;2022-08-14T10:34:17;28.90;99.90
12289;DHT22;6207;49.308;7.336;2022-08-14T10:36:45;28.90;99.90
12289;DHT22;6207;49.308;7.336;2022-08-14T10:39:28;29.30;99.90
12289;DHT22;6207;49.308;7.336;2022-08-14T10:42:08;28.50;99.90
12289;DHT22;6207;49.308;7.336;2022-08-14T10:44:45;28.60;99.90
12289;DHT22;6207;49.308;7.336;2022-08-14T10:47:18;29.00;99.90
12289;DHT22;6207;49.308;7.336;2022-08-14T10:50:05;29.50;99.90
12289;DHT22;6207;49.308;7.336;2022-08-14T10:52:37;29.60;99.90
12289;DHT22;6207;49.308;7.336;2022-08-14T10:55:10;29.40;99.90
12289;DHT22;6207;49.308;7.336;2022-08-14T10:58:07;29.30;99.90
12289;DHT22;6207;49.308;7.336;2022-08-14T11:00:37;29.10;99.90
12289;DHT22;6207;49.308;7.336;2022-08-14T11:03:12;29.20;99.90
12289;DHT22;6207;49.308;7.336;2022-08-14T11:06:11;29.40;99.90
12289;DHT22;6207;49.308;7.336;2022-08-14T11:08:41;29.30;99.90
12289;DHT22;6207;49.308;7.336;2022-08-14T11:11:11;29.40;99.90
12289;DHT22;6207;49.308;7.336;2022-08-14T11:13:41;29.40;99.90
12289;DHT22;6207;49.308;7.336;2022-08-14T11:16:09;29.20;99.90
12289;DHT22;6207;49.308;7.336;2022-08-14T11:18:36;29.50;99.90
12289;DHT22;6207;49.308;7.336;2022-08-14T11:21:05;29.40;99.90
12289;DHT22;6207;49.308;7.336;2022-08-14T11:23:36;29.60;99.90
12289;DHT22;6207;49.308;7.336;2022-08-14T11:26:11;29.20;99.80
12289;DHT22;6207;49.308;7.336;2022-08-14T11:28:42;29.40;99.90
12289;DHT22;6207;49.308;7.336;2022-08-14T11:31:18;29.40;99.90
12289;DHT22;6207;49.308;7.336;2022-08-14T11:36:27;29.60;99.90
12289;DHT22;6207;49.308;7.336;2022-08-14T11:39:21;29.00;99.90
12289;DHT22;6207;49.308;7.336;2022-08-14T11:41:59;29.50;99.90
12289;DHT22;6207;49.308;7.336;2022-08-14T11:44:55;29.80;99.90
12289;DHT22;6207;49.308;7.336;2022-08-14T11:47:26;29.60;99.90
12289;DHT22;6207;49.308;7.336;2022-08-14T11:50:20;30.40;99.90
12289;DHT22;6207;49.308;7.336;2022-08-14T11:53:04;30.50;99.90
12289;DHT22;6207;49.308;7.336;2022-08-14T11:55:36;30.10;99.90
12289;DHT22;6207;49.308;7.336;2022-08-14T11:58:09;29.90;99.90
12289;DHT22;6207;49.308;7.336;2022-08-14T12:00:51;29.60;99.90
12289;DHT22;6207;49.308;7.336;2022-08-14T12:03:46;29.80;99.90
12289;DHT22;6207;49.308;7.336;2022-08-14T12:06:24;29.60;99.90
12289;DHT22;6207;49.308;7.336;2022-08-14T12:09:05;29.70;99.90
12289;DHT22;6207;49.308;7.336;2022-08-14T12:11:41;29.70;99.90
12289;DHT22;6207;49.308;7.336;2022-08-14T12:14:17;29.30;99.90
12289;DHT22;6207;49.308;7.336;2022-08-14T12:17:02;29.60;99.90
12289;DHT22;6207;49.308;7.336;2022-08-14T12:19:56;29.90;99.90
12289;DHT22;6207;49.308;7.336;2022-08-14T12:22:42;29.80;99.90
12289;DHT22;6207;49.308;7.336;2022-08-14T12:25:21;29.60;99.90
12289;DHT22;6207;49.308;7.336;2022-08-14T12:27:52;29.70;99.90
12289;DHT22;6207;49.308;7.336;2022-08-14T12:30:39;29.80;99.90
12289;DHT22;6207;49.308;7.336;2022-08-14T12:36:01;29.90;99.90
12289;DHT22;6207;49.308;7.336;2022-08-14T12:38:40;29.70;99.90
12289;DHT22;6207;49.308;7.336;2022-08-14T12:41:14;29.80;99.90
12289;DHT22;6207;49.308;7.336;2022-08-14T12:43:55;29.90;99.90
12289;DHT22;6207;49.308;7.336;2022-08-14T12:46:33;30.10;99.90
12289;DHT22;6207;49.308;7.336;2022-08-14T12:49:08;29.80;99.90
12289;DHT22;6207;49.308;7.336;2022-08-14T12:51:36;29.70;99.90
12289;DHT22;6207;49.308;7.336;2022-08-14T12:54:17;30.00;99.90
12289;DHT22;6207;49.308;7.336;2022-08-14T12:57:34;30.00;99.90
12289;DHT22;6207;49.308;7.336;2022-08-14T13:00:21;30.00;99.90
12289;DHT22;6207;49.308;7.336;2022-08-14T13:02:52;30.10;99.90
12289;DHT22;6207;49.308;7.336;2022-08-14T13:05:23;29.90;99.90
12289;DHT22;6207;49.308;7.336;2022-08-14T13:07:53;30.10;99.90
12289;DHT22;6207;49.308;7.336;2022-08-14T13:10:20;30.60;99.90
12289;DHT22;6207;49.308;7.336;2022-08-14T13:13:08;30.30;99.90
12289;DHT22;6207;49.308;7.336;2022-08-14T13:15:48;30.70;99.90
12289;DHT22;6207;49.308;7.336;2022-08-14T13:18:24;30.40;99.90
12289;DHT22;6207;49.308;7.336;2022-08-14T13:20:55;30.20;99.90
12289;DHT22;6207;49.308;7.336;2022-08-14T13:23:31;30.30;99.90
12289;DHT22;6207;49.308;7.336;2022-08-14T13:25:59;30.40;99.90
12289;DHT22;6207;49.308;7.336;2022-08-14T13:28:27;30.20;99.90
12289;DHT22;6207;49.308;7.336;2022-08-14T13:31:01;30.50;99.90
12289;DHT22;6207;49.308;7.336;2022-08-14T13:33:38;30.70;99.90
12289;DHT22;6207;49.308;7.336;2022-08-14T13:36:07;30.30;99.90
12289;DHT22;6207;49.308;7.336;2022-08-14T13:38:35;29.90;99.90
12289;DHT22;6207;49.308;7.336;2022-08-14T13:41:02;29.80;99.90
12289;DHT22;6207;49.308;7.336;2022-08-14T13:43:30;29.70;99.90
12289;DHT22;6207;49.308;7.336;2022-08-14T13:46:17;30.00;99.90
12289;DHT22;6207;49.308;7.336;2022-08-14T13:48:53;30.30;99.90
12289;DHT22;6207;49.308;7.336;2022-08-14T13:51:22;30.20;99.90
12289;DHT22;6207;49.308;7.336;2022-08-14T13:53:56;30.30;99.90
12289;DHT22;6207;49.308;7.336;2022-08-14T13:56:38;30.10;99.90
12289;DHT22;6207;49.308;7.336;2022-08-14T13:59:07;30.30;99.90
12289;DHT22;6207;49.308;7.336;2022-08-14T14:01:35;30.00;99.90
12289;DHT22;6207;49.308;7.336;2022-08-14T14:04:13;29.80;99.90
12289;DHT22;6207;49.308;7.336;2022-08-14T14:06:48;29.80;99.90
12289;DHT22;6207;49.308;7.336;2022-08-14T14:09:29;30.00;99.90
12289;DHT22;6207;49.308;7.336;2022-08-14T14:12:16;29.80;99.90
12289;DHT22;6207;49.308;7.336;2022-08-14T14:15:11;30.00;99.90
12289;DHT22;6207;49.308;7.336;2022-08-14T14:17:40;30.00;99.90
12289;DHT22;6207;49.308;7.336;2022-08-14T14:20:11;30.00;99.90
12289;DHT22;6207;49.308;7.336;2022-08-14T14:22:59;30.00;99.90
12289;DHT22;6207;49.308;7.336;2022-08-14T14:25:40;30.20;99.90
12289;DHT22;6207;49.308;7.336;2022-08-14T14:28:16;30.30;99.90
12289;DHT22;6207;49.308;7.336;2022-08-14T14:30:51;30.40;99.90
12289;DHT22;6207;49.308;7.336;2022-08-14T14:33:23;30.20;99.90
12289;DHT22;6207;49.308;7.336;2022-08-14T14:36:10;29.90;99.90
12289;DHT22;6207;49.308;7.336;2022-08-14T14:38:40;30.40;99.90
12289;DHT22;6207;49.308;7.336;2022-08-14T14:41:12;30.30;99.90
12289;DHT22;6207;49.308;7.336;2022-08-14T14:43:42;30.30;99.90
12289;DHT22;6207;49.308;7.336;2022-08-14T14:46:18;30.20;99.90
12289;DHT22;6207;49.308;7.336;2022-08-14T14:48:45;30.60;99.90
12289;DHT22;6207;49.308;7.336;2022-08-14T14:51:20;30.70;99.90
12289;DHT22;6207;49.308;7.336;2022-08-14T14:53:47;31.20;99.90
12289;DHT22;6207;49.308;7.336;2022-08-14T14:56:15;31.00;99.90
12289;DHT22;6207;49.308;7.336;2022-08-14T14:59:01;31.20;99.90
12289;DHT22;6207;49.308;7.336;2022-08-14T15:01:34;31.50;99.90
12289;DHT22;6207;49.308;7.336;2022-08-14T15:04:02;31.40;99.90
12289;DHT22;6207;49.308;7.336;2022-08-14T15:06:45;31.40;99.90
12289;DHT22;6207;49.308;7.336;2022-08-14T15:09:13;31.30;99.90
12289;DHT22;6207;49.308;7.336;2022-08-14T15:11:43;31.00;99.90
12289;DHT22;6207;49.308;7.336;2022-08-14T15:14:13;31.10;99.90
12289;DHT22;6207;49.308;7.336;2022-08-14T15:17:00;30.90;99.90
12289;DHT22;6207;49.308;7.336;2022-08-14T15:19:27;30.80;99.90
12289;DHT22;6207;49.308;7.336;2022-08-14T15:21:54;30.90;99.90
12289;DHT22;6207;49.308;7.336;2022-08-14T15:24:22;30.90;99.90
12289;DHT22;6207;49.308;7.336;2022-08-14T15:26:53;30.80;99.90
12289;DHT22;6207;49.308;7.336;2022-08-14T15:29:24;30.80;99.90
12289;DHT22;6207;49.308;7.336;2022-08-14T15:31:52;30.70;99.90
12289;DHT22;6207;49.308;7.336;2022-08-14T15:34:20;30.60;99.90
12289;DHT22;6207;49.308;7.336;2022-08-14T15:37:07;30.80;99.90
12289;DHT22;6207;49.308;7.336;2022-08-14T15:39:38;30.80;99.90
12289;DHT22;6207;49.308;7.336;2022-08-14T15:42:08;30.50;99.90
12289;DHT22;6207;49.308;7.336;2022-08-14T15:44:43;30.80;99.90
12289;DHT22;6207;49.308;7.336;2022-08-14T15:47:28;30.90;99.90
12289;DHT22;6207;49.308;7.336;2022-08-14T15:49:58;30.90;99.90
12289;DHT22;6207;49.308;7.336;2022-08-14T15:52:30;30.70;99.90
12289;DHT22;6207;49.308;7.336;2022-08-14T15:55:07;30.70;99.90
12289;DHT22;6207;49.308;7.336;2022-08-14T15:57:35;30.70;99.90
12289;DHT22;6207;49.308;7.336;2022-08-14T16:00:05;30.70;99.90
12289;DHT22;6207;49.308;7.336;2022-08-14T16:03:11;30.60;99.90
12289;DHT22;6207;49.308;7.336;2022-08-14T16:05:42;30.60;99.90
12289;DHT22;6207;49.308;7.336;2022-08-14T16:08:09;30.40;99.90
12289;DHT22;6207;49.308;7.336;2022-08-14T16:10:56;30.20;99.90
12289;DHT22;6207;49.308;7.336;2022-08-14T16:13:23;29.80;99.90
12289;DHT22;6207;49.308;7.336;2022-08-14T16:19:05;30.00;99.90
12289;DHT22;6207;49.308;7.336;2022-08-14T16:21:38;30.10;99.90
12289;DHT22;6207;49.308;7.336;2022-08-14T16:24:06;30.20;99.90
12289;DHT22;6207;49.308;7.336;2022-08-14T16:26:55;30.50;99.90
12289;DHT22;6207;49.308;7.336;2022-08-14T16:29:42;30.70;99.90
12289;DHT22;6207;49.308;7.336;2022-08-14T16:32:11;30.60;99.90
12289;DHT22;6207;49.308;7.336;2022-08-14T16:34:59;30.60;99.90
12289;DHT22;6207;49.308;7.336;2022-08-14T16:37:26;30.60;99.90
12289;DHT22;6207;49.308;7.336;2022-08-14T16:40:00;30.30;99.90
12289;DHT22;6207;49.308;7.336;2022-08-14T16:42:29;30.00;99.90
12289;DHT22;6207;49.308;7.336;2022-08-14T16:45:23;30.10;99.90
12289;DHT22;6207;49.308;7.336;2022-08-14T16:47:53;30.10;99.90
12289;DHT22;6207;49.308;7.336;2022-08-14T16:50:22;30.20;99.90
12289;DHT22;6207;49.308;7.336;2022-08-14T16:53:09;30.20;99.90
12289;DHT22;6207;49.308;7.336;2022-08-14T16:55:36;30.10;99.90